sensor_id;sensor_type;location;lat;lon;timestamp;temperature;humidity
16064;DHT22;8136;53.172;8.256;2024-01-10T10:50:18;0.20;99.90
16064;DHT22;8136;53.172;8.256;2024-01-10T10:52:46;0.30;99.90
16064;DHT22;8136;53.172;8.256;2024-01-10T10:55:15;0.40;99.90
16064;DHT22;8136;53.172;8.256;2024-01-10T10:57:44;0.40;99.90
16064;DHT22;8136;53.172;8.256;2024-01-10T11:00:13;0.60;99.90
16064;DHT22;8136;53.172;8.256;2024-01-10T11:02:42;0.60;99.90
16064;DHT22;8136;53.172;8.256;2024-01-10T12:02:07;2.20;99.90
16064;DHT22;8136;53.172;8.256;2024-01-10T12:04:37;2.30;99.90
16064;DHT22;8136;53.172;8.256;2024-01-10T12:07:05;2.30;99.90
16064;DHT22;8136;53.172;8.256;2024-01-10T12:09:33;2.40;99.90
16064;DHT22;8136;53.172;8.256;2024-01-10T12:12:00;2.50;99.90
16064;DHT22;8136;53.172;8.256;2024-01-10T22:23:42;-2.70;99.90
16064;DHT22;8136;53.172;8.256;2024-01-10T22:26:09;-2.70;99.90
16064;DHT22;8136;53.172;8.256;2024-01-10T22:28:36;-2.70;99.90
16064;DHT22;8136;53.172;8.256;2024-01-10T22:31:03;-2.70;99.90
16064;DHT22;8136;53.172;8.256;2024-01-10T22:33:30;-2.70;99.90
16064;DHT22;8136;53.172;8.256;2024-01-10T22:35:57;-2.70;99.90
16064;DHT22;8136;53.172;8.256;2024-01-10T22:38:24;-2.70;99.90
16064;DHT22;8136;53.172;8.256;2024-01-10T22:40:53;-2.80;99.90
16064;DHT22;8136;53.172;8.256;2024-01-10T22:43:23;-2.70;99.90
16064;DHT22;8136;53.172;8.256;2024-01-10T22:45:50;-2.80;99.90
16064;DHT22;8136;53.172;8.256;2024-01-10T22:48:17;-2.80;99.90
16064;DHT22;8136;53.172;8.256;2024-01-10T22:50:46;-2.80;99.90
16064;DHT22;8136;53.172;8.256;2024-01-10T22:53:13;-2.70;99.90
16064;DHT22;8136;53.172;8.256;2024-01-10T22:55:40;-2.70;99.90
16064;DHT22;8136;53.172;8.256;2024-01-10T22:58:09;-2.80;99.90
16064;DHT22;8136;53.172;8.256;2024-01-10T23:01:00;-2.80;99.90
16064;DHT22;8136;53.172;8.256;2024-01-10T23:03:38;-2.80;99.90
16064;DHT22;8136;53.172;8.256;2024-01-10T23:06:06;-2.90;99.90
16064;DHT22;8136;53.172;8.256;2024-01-10T23:08:37;-2.90;99.90
16064;DHT22;8136;53.172;8.256;2024-01-10T23:11:05;-2.90;99.90
16064;DHT22;8136;53.172;8.256;2024-01-10T23:13:53;-2.90;99.90
16064;DHT22;8136;53.172;8.256;2024-01-10T23:16:28;-2.90;99.90
16064;DHT22;8136;53.172;8.256;2024-01-10T23:19:08;-2.90;99.90
16064;DHT22;8136;53.172;8.256;2024-01-10T23:21:35;-3.00;99.90
16064;DHT22;8136;53.172;8.256;2024-01-10T23:24:03;-3.00;99.90
16064;DHT22;8136;53.172;8.256;2024-01-10T23:26:30;-3.00;99.90
16064;DHT22;8136;53.172;8.256;2024-01-10T23:28:58;-3.00;99.90
16064;DHT22;8136;53.172;8.256;2024-01-10T23:31:25;-3.10;99.90
16064;DHT22;8136;53.172;8.256;2024-01-10T23:33:52;-3.10;99.90
16064;DHT22;8136;53.172;8.256;2024-01-10T23:36:19;-3.10;99.90
16064;DHT22;8136;53.172;8.256;2024-01-10T23:38:47;-3.10;99.90
16064;DHT22;8136;53.172;8.256;2024-01-10T23:41:14;-3.00;99.90
16064;DHT22;8136;53.172;8.256;2024-01-10T23:43:42;-3.00;99.90
16064;DHT22;8136;53.172;8.256;2024-01-10T23:46:10;-3.00;99.90
16064;DHT22;8136;53.172;8.256;2024-01-10T23:48:37;-2.90;99.90
16064;DHT22;8136;53.172;8.256;2024-01-10T23:51:04;-3.00;99.90
16064;DHT22;8136;53.172;8.256;2024-01-10T23:53:31;-3.00;99.90
16064;DHT22;8136;53.172;8.256;2024-01-10T23:55:58;-2.90;99.90
16064;DHT22;8136;53.172;8.256;2024-01-10T23:58:25;-2.90;99.90
